createdAt,value
2023-02-27T00:00:16.332Z,43.40
2023-02-27T00:04:16.332Z,72.93
2023-02-27T00:08:16.319Z,86.18
2023-02-27T00:12:16.337Z,62.61
2023-02-27T00:16:16.376Z,71.00
2023-02-27T00:20:16.300Z,55.52
2023-02-27T00:24:16.305Z,118.86
2023-02-27T00:28:16.284Z,109.79
2023-02-27T00:32:16.334Z,82.62
2023-02-27T00:36:16.343Z,91.30
2023-02-27T00:40:16.347Z,83.01
2023-02-27T00:44:16.352Z,130.96
2023-02-27T00:48:16.347Z,107.32
2023-02-27T00:52:16.368Z,102.74
2023-02-27T00:56:16.381Z,75.49
2023-02-27T01:00:16.355Z,95.79
2023-02-27T01:04:16.393Z,123.72
2023-02-27T01:08:16.445Z,90.90
2023-02-27T01:12:16.449Z,87.17
2023-02-27T01:16:16.541Z,71.27
2023-02-27T01:20:16.513Z,69.46
2023-02-27T01:24:16.575Z,33.24
2023-02-27T01:28:16.589Z,71.46
2023-02-27T01:32:16.826Z,59.78
2023-02-27T01:36:16.729Z,71.20
2023-02-27T01:40:16.896Z,93.26
2023-02-27T01:44:16.840Z,90.07
2023-02-27T01:48:16.967Z,129.52
2023-02-27T01:52:16.959Z,101.69
2023-02-27T01:56:17.012Z,104.12
2023-02-27T02:00:17.071Z,115.45
2023-02-27T02:04:17.138Z,140.02
2023-02-27T02:08:17.200Z,127.91
2023-02-27T02:12:17.231Z,80.37
2023-02-27T02:16:17.427Z,85.07
2023-02-27T02:20:17.368Z,97.89
2023-02-27T02:24:17.467Z,133.19
2023-02-27T02:28:17.566Z,113.78
2023-02-27T02:32:17.742Z,81.99
2023-02-27T02:36:17.749Z,73.99
2023-02-27T02:40:17.885Z,83.98
2023-02-27T02:44:18.001Z,76.82
2023-02-27T02:48:18.138Z,86.26
2023-02-27T02:52:18.187Z,77.02
2023-02-27T02:56:18.310Z,89.49
2023-02-27T03:00:18.420Z,75.00
2023-02-27T03:04:18.615Z,124.42
2023-02-27T03:08:18.641Z,157.67
2023-02-27T03:12:18.767Z,97.90
2023-02-27T03:16:18.862Z,84.90
2023-02-27T03:20:18.974Z,79.68
2023-02-27T03:24:19.110Z,128.38
2023-02-27T03:28:19.224Z,172.64
2023-02-27T03:32:19.376Z,102.67
2023-02-27T03:36:19.413Z,89.45
2023-02-27T03:40:19.542Z,79.80
2023-02-27T03:44:19.666Z,184.72
2023-02-27T03:48:19.774Z,143.10
2023-02-27T03:52:19.879Z,115.40
2023-02-27T03:56:19.976Z,135.92
2023-02-27T04:00:20.070Z,99.60
2023-02-27T04:04:20.158Z,171.71
2023-02-27T04:08:21.097Z,200.57
2023-02-27T04:12:20.416Z,140.37
2023-02-27T04:16:20.505Z,109.44
2023-02-27T04:20:20.611Z,220.37
2023-02-27T04:24:20.704Z,214.70
2023-02-27T04:28:20.822Z,176.71
2023-02-27T04:32:20.958Z,133.26
2023-02-27T04:36:21.032Z,152.44
2023-02-27T04:40:21.147Z,208.37
2023-02-27T04:44:21.270Z,224.44
2023-02-27T04:48:21.419Z,172.89
2023-02-27T04:52:21.606Z,157.77
2023-02-27T04:56:21.672Z,191.01
2023-02-27T05:00:21.782Z,236.75
2023-02-27T05:04:21.897Z,197.80
2023-02-27T05:08:22.022Z,158.58
2023-02-27T05:12:22.137Z,145.72
2023-02-27T05:16:22.325Z,170.25
2023-02-27T05:20:22.392Z,209.57
2023-02-27T05:24:22.490Z,176.87
2023-02-27T05:28:23.117Z,158.43
2023-02-27T05:32:22.715Z,196.17
2023-02-27T05:36:22.842Z,173.21
2023-02-27T05:40:22.937Z,235.15
2023-02-27T05:44:23.100Z,187.08
2023-02-27T05:48:23.209Z,181.54
2023-02-27T05:52:23.358Z,235.42
2023-02-27T05:56:23.463Z,250.37
2023-02-27T06:00:23.594Z,225.30
2023-02-27T06:04:23.714Z,214.78
2023-02-27T06:08:23.860Z,248.09
2023-02-27T06:12:23.972Z,239.69
2023-02-27T06:16:24.142Z,244.15
2023-02-27T06:20:24.220Z,240.19
2023-02-27T06:24:24.357Z,231.24
2023-02-27T06:28:24.430Z,248.87
2023-02-27T06:32:24.450Z,250.00
2023-02-27T06:36:24.540Z,245.26
2023-02-27T06:40:24.670Z,270.29
2023-02-27T06:44:24.664Z,243.88
2023-02-27T06:48:24.885Z,256.53
2023-02-27T06:52:25.149Z,250.00
2023-02-27T06:56:25.325Z,249.78
2023-02-27T07:00:25.667Z,250.00
2023-02-27T07:04:25.672Z,250.00
2023-02-27T07:08:25.418Z,249.83
2023-02-27T07:12:25.550Z,249.27
2023-02-27T07:16:25.891Z,250.10
2023-02-27T07:20:26.189Z,250.00
2023-02-27T07:24:25.700Z,250.00
2023-02-27T07:28:25.736Z,250.00
2023-02-27T07:32:26.274Z,245.42
2023-02-27T07:36:26.070Z,247.44
2023-02-27T07:40:25.800Z,246.72
2023-02-27T07:44:25.782Z,246.11
2023-02-27T07:48:26.155Z,241.23
2023-02-27T07:52:26.192Z,250.53
2023-02-27T07:56:25.839Z,245.57
2023-02-27T08:00:25.599Z,243.44
2023-02-27T08:04:25.631Z,242.57
2023-02-27T08:08:25.686Z,244.70
2023-02-27T08:12:25.514Z,241.38
2023-02-27T08:16:26.139Z,239.74
2023-02-27T08:20:25.471Z,235.46
2023-02-27T08:24:25.438Z,236.60
2023-02-27T08:28:25.372Z,235.03
2023-02-27T08:32:25.365Z,235.45
2023-02-27T08:36:25.729Z,233.76
2023-02-27T08:40:25.682Z,232.05
2023-02-27T08:44:25.707Z,230.13
2023-02-27T08:48:25.711Z,223.31
2023-02-27T08:52:25.225Z,216.37
2023-02-27T08:56:25.447Z,215.23
2023-02-27T09:00:25.362Z,211.65
2023-02-27T09:04:25.080Z,213.11
2023-02-27T09:08:25.128Z,213.52
2023-02-27T09:12:25.012Z,210.42
2023-02-27T09:16:25.119Z,208.83
2023-02-27T09:20:24.956Z,207.60
2023-02-27T09:24:24.936Z,206.52
2023-02-27T09:28:24.869Z,204.55
2023-02-27T09:32:24.906Z,204.38
2023-02-27T09:36:25.748Z,204.26
2023-02-27T09:40:25.199Z,216.09
2023-02-27T09:44:36.371Z,224.82
2023-02-27T09:48:25.809Z,236.04
2023-02-27T09:52:25.214Z,250.00
2023-02-27T09:56:25.449Z,251.65
2023-02-27T10:00:25.194Z,248.68
2023-02-27T10:04:25.696Z,242.16
2023-02-27T10:08:25.171Z,240.01
2023-02-27T10:12:25.322Z,237.66
2023-02-27T10:16:26.133Z,234.99
2023-02-27T10:20:25.516Z,232.90
2023-02-27T10:24:25.481Z,228.34
2023-02-27T10:28:25.422Z,228.91
2023-02-27T10:32:25.385Z,224.54
2023-02-27T10:36:33.584Z,221.67
2023-02-27T10:40:26.766Z,219.52
2023-02-27T10:44:25.730Z,219.01
2023-02-27T10:48:25.735Z,216.69
2023-02-27T10:52:25.197Z,223.19
2023-02-27T10:56:25.599Z,213.37
2023-02-27T11:00:25.708Z,213.20
2023-02-27T11:04:25.443Z,211.64
2023-02-27T11:08:25.411Z,211.10
2023-02-27T11:12:25.703Z,209.19
2023-02-27T11:16:25.420Z,208.12
2023-02-27T11:20:25.408Z,205.62
2023-02-27T11:24:25.380Z,203.73
2023-02-27T11:28:25.398Z,202.18
2023-02-27T11:32:25.437Z,199.95
2023-02-27T11:36:25.750Z,198.20
2023-02-27T11:40:25.774Z,196.14
2023-02-27T11:44:32.771Z,193.95
2023-02-27T11:48:26.385Z,188.14
2023-02-27T11:52:25.360Z,186.85
2023-02-27T11:56:25.730Z,184.48
2023-02-27T12:00:25.288Z,181.81
2023-02-27T12:04:25.785Z,181.12
2023-02-27T12:08:25.519Z,181.50
2023-02-27T12:12:25.747Z,174.06
2023-02-27T12:16:25.678Z,169.62
2023-02-27T12:20:25.432Z,170.85
2023-02-27T12:24:25.372Z,170.20
2023-02-27T12:28:25.758Z,167.53
2023-02-27T12:32:25.824Z,165.25
2023-02-27T12:36:25.257Z,161.60
2023-02-27T12:40:25.241Z,158.84
2023-02-27T12:44:25.197Z,157.00
2023-02-27T12:48:25.149Z,156.81
2023-02-27T12:52:25.113Z,159.40
2023-02-27T12:56:25.060Z,159.66
2023-02-27T13:00:25.250Z,161.98
2023-02-27T13:04:25.018Z,162.00
2023-02-27T13:08:24.966Z,161.14
2023-02-27T13:12:24.918Z,159.71
2023-02-27T13:16:25.279Z,158.60
2023-02-27T13:20:24.858Z,156.61
2023-02-27T13:24:25.296Z,155.41
2023-02-27T13:28:25.269Z,153.71
2023-02-27T13:32:30.009Z,150.93
2023-02-27T13:36:25.790Z,151.78
2023-02-27T13:40:24.763Z,151.37
2023-02-27T13:44:24.743Z,148.96
2023-02-27T13:48:24.688Z,150.28
2023-02-27T13:52:24.670Z,148.95
2023-02-27T13:56:24.641Z,147.96
2023-02-27T14:00:24.723Z,147.47
2023-02-27T14:04:24.877Z,144.71
2023-02-27T14:08:24.979Z,144.24
2023-02-27T14:12:27.092Z,144.05
2023-02-27T14:16:25.131Z,143.05
2023-02-27T14:20:24.991Z,142.30
2023-02-27T14:24:24.981Z,140.98
2023-02-27T14:28:24.940Z,139.71
2023-02-27T14:32:24.939Z,138.82
2023-02-27T14:36:24.920Z,136.54
2023-02-27T14:40:30.123Z,137.36
2023-02-27T14:44:25.798Z,137.41
2023-02-27T14:48:24.712Z,135.52
2023-02-27T14:52:24.713Z,134.88
2023-02-27T14:56:24.733Z,134.64
2023-02-27T15:00:24.908Z,133.93
2023-02-27T15:04:25.209Z,132.32
2023-02-27T15:08:25.657Z,132.11
2023-02-27T15:12:25.396Z,131.06
2023-02-27T15:16:25.932Z,131.06
2023-02-27T15:20:25.798Z,131.10
2023-02-27T15:24:25.776Z,132.81
2023-02-27T15:28:25.917Z,131.92
2023-02-27T15:32:26.097Z,132.03
2023-02-27T15:36:26.237Z,131.47
2023-02-27T15:40:26.406Z,130.52
2023-02-27T15:44:26.566Z,132.34
2023-02-27T15:48:26.723Z,132.10
2023-02-27T15:52:26.840Z,132.40
2023-02-27T15:56:26.984Z,132.53
2023-02-27T16:00:27.116Z,133.97
2023-02-27T16:04:27.265Z,132.79
2023-02-27T16:08:27.833Z,132.59
2023-02-27T16:12:27.534Z,132.33
2023-02-27T16:16:28.069Z,132.66
2023-02-27T16:20:27.785Z,134.34
2023-02-27T16:24:27.938Z,131.87
2023-02-27T16:28:28.053Z,129.62
2023-02-27T16:32:28.245Z,130.03
2023-02-27T16:36:28.677Z,128.99
2023-02-27T16:40:28.555Z,129.26
2023-02-27T16:44:28.642Z,127.36
2023-02-27T16:48:28.754Z,126.90
2023-02-27T16:52:28.958Z,126.64
2023-02-27T16:56:37.689Z,126.77
2023-02-27T17:00:30.086Z,125.35
2023-02-27T17:04:29.070Z,125.30
2023-02-27T17:08:28.988Z,126.02
2023-02-27T17:12:29.099Z,125.87
2023-02-27T17:16:29.667Z,124.93
2023-02-27T17:20:29.410Z,123.54
2023-02-27T17:24:29.611Z,122.79
2023-02-27T17:28:29.811Z,123.20
2023-02-27T17:32:30.038Z,120.39
2023-02-27T17:36:30.416Z,119.70
2023-02-27T17:40:29.997Z,121.11
2023-02-27T17:44:29.913Z,120.19
2023-02-27T17:48:29.885Z,118.42
2023-02-27T17:52:29.832Z,119.67
2023-02-27T17:56:30.186Z,117.78
2023-02-27T18:00:29.841Z,118.55
2023-02-27T18:04:29.821Z,118.22
2023-02-27T18:08:29.778Z,119.52
2023-02-27T18:12:29.771Z,119.65
2023-02-27T18:16:30.151Z,118.67
2023-02-27T18:20:29.638Z,118.71
2023-02-27T18:24:29.645Z,119.24
2023-02-27T18:28:29.577Z,119.17
2023-02-27T18:32:29.530Z,118.31
2023-02-27T18:36:30.015Z,118.76
2023-02-27T18:40:29.482Z,117.42
2023-02-27T18:44:29.441Z,117.39
2023-02-27T18:48:29.471Z,116.38
2023-02-27T18:52:29.389Z,115.94
2023-02-27T18:56:29.700Z,116.01
2023-02-27T19:00:29.290Z,115.28
2023-02-27T19:04:29.251Z,114.70
2023-02-27T19:08:29.238Z,115.10
2023-02-27T19:12:29.166Z,114.34
2023-02-27T19:16:29.469Z,113.57
2023-02-27T19:20:29.135Z,113.62
2023-02-27T19:24:29.062Z,112.25
2023-02-27T19:28:30.004Z,112.95
2023-02-27T19:32:28.993Z,112.92
2023-02-27T19:36:29.336Z,111.87
2023-02-27T19:40:28.951Z,111.04
2023-02-27T19:44:28.960Z,111.11
2023-02-27T19:48:28.885Z,110.43
2023-02-27T19:52:28.897Z,109.51
2023-02-27T19:56:29.377Z,108.73
2023-02-27T20:00:28.958Z,107.89
2023-02-27T20:04:28.982Z,107.14
2023-02-27T20:08:29.020Z,106.50
2023-02-27T20:12:29.043Z,105.29
2023-02-27T20:16:29.405Z,105.54
2023-02-27T20:20:31.721Z,103.86
2023-02-27T20:24:29.074Z,103.24
2023-02-27T20:28:29.022Z,103.19
2023-02-27T20:32:29.114Z,102.46
2023-02-27T20:36:28.958Z,101.51
2023-02-27T20:40:28.905Z,100.46
2023-02-27T20:44:28.892Z,101.17
2023-02-27T20:48:28.821Z,99.50
2023-02-27T20:52:28.799Z,98.35
2023-02-27T20:56:28.782Z,98.54
2023-02-27T21:00:28.701Z,97.33
2023-02-27T21:04:28.734Z,96.36
2023-02-27T21:08:28.637Z,95.62
2023-02-27T21:12:28.594Z,94.46
2023-02-27T21:16:28.567Z,94.83
2023-02-27T21:20:28.539Z,93.77
2023-02-27T21:24:28.510Z,93.00
2023-02-27T21:28:28.459Z,91.97
2023-02-27T21:32:28.408Z,91.05
2023-02-27T21:36:28.407Z,91.57
2023-02-27T21:40:28.376Z,90.61
2023-02-27T21:44:28.290Z,90.37
2023-02-27T21:48:28.245Z,88.73
2023-02-27T21:52:28.231Z,89.15
2023-02-27T21:56:28.522Z,88.16
2023-02-27T22:00:28.132Z,87.54
2023-02-27T22:04:28.102Z,86.83
2023-02-27T22:08:28.063Z,85.94
2023-02-27T22:12:28.038Z,86.88
2023-02-27T22:16:27.997Z,85.14
2023-02-27T22:20:28.046Z,84.27
2023-02-27T22:24:28.148Z,84.35
2023-02-27T22:28:28.204Z,83.28
2023-02-27T22:32:28.223Z,83.11
2023-02-27T22:36:28.245Z,82.79
2023-02-27T22:40:28.324Z,81.70
2023-02-27T22:44:28.337Z,81.34
2023-02-27T22:48:28.369Z,80.58
2023-02-27T22:52:28.467Z,79.01
2023-02-27T22:56:28.493Z,79.57
2023-02-27T23:00:28.506Z,79.20
2023-02-27T23:04:28.582Z,78.38
2023-02-27T23:08:28.621Z,78.36
2023-02-27T23:12:28.683Z,76.98
2023-02-27T23:16:28.839Z,77.11
2023-02-27T23:20:28.755Z,76.34
2023-02-27T23:24:28.784Z,75.43
2023-02-27T23:28:28.879Z,74.47
2023-02-27T23:32:28.945Z,74.19
2023-02-27T23:36:28.961Z,74.60
2023-02-27T23:40:28.980Z,73.19
2023-02-27T23:44:29.028Z,73.50
2023-02-27T23:48:29.088Z,72.14
2023-02-27T23:52:29.122Z,72.22
2023-02-27T23:56:29.156Z,70.23
